TimeEST,TemperatureF,Dew PointF,Humidity,Sea Level PressureIn,VisibilityMPH,Wind Direction,Wind SpeedMPH,Gust SpeedMPH,PrecipitationIn,Events,Conditions,WindDirDegrees,DateUTC
12:15 AM,33.8,23.0,65,30.29,10.0,SSW,6.9,-,N/A,,Clear,200,2013-11-26 05:15:00
12:35 AM,33.8,23.0,65,30.30,10.0,SSW,4.6,-,N/A,,Clear,210,2013-11-26 05:35:00
12:55 AM,33.8,24.8,70,30.31,10.0,SSW,5.8,-,N/A,,Clear,210,2013-11-26 05:55:00
1:15 AM,33.8,24.8,70,30.31,10.0,South,5.8,-,N/A,,Clear,190,2013-11-26 06:15:00
1:35 AM,33.8,24.8,70,30.30,10.0,South,6.9,-,N/A,,Clear,190,2013-11-26 06:35:00
1:55 AM,35.6,26.6,70,30.30,10.0,SSW,5.8,-,N/A,,Clear,200,2013-11-26 06:55:00
2:15 AM,35.6,26.6,70,30.29,10.0,SSW,10.4,-,N/A,,Clear,200,2013-11-26 07:15:00
2:35 AM,35.6,26.6,70,30.30,10.0,SSW,5.8,-,N/A,,Clear,210,2013-11-26 07:35:00
2:55 AM,37.4,24.8,60,30.30,10.0,SW,10.4,16.1,N/A,,Partly Cloudy,220,2013-11-26 07:55:00
3:15 AM,37.4,24.8,60,30.30,10.0,SSW,9.2,-,N/A,,Scattered Clouds,210,2013-11-26 08:15:00
3:35 AM,37.4,23.0,56,30.30,10.0,SSW,6.9,-,N/A,,Scattered Clouds,200,2013-11-26 08:35:00
3:55 AM,35.6,21.2,56,30.31,10.0,SW,4.6,-,N/A,,Partly Cloudy,220,2013-11-26 08:55:00
4:15 AM,35.6,19.4,52,30.30,10.0,SW,6.9,-,N/A,,Clear,220,2013-11-26 09:15:00
4:35 AM,35.6,19.4,52,30.31,10.0,SW,5.8,-,N/A,,Clear,220,2013-11-26 09:35:00
4:55 AM,35.6,17.6,48,30.31,10.0,SW,5.8,-,N/A,,Clear,220,2013-11-26 09:55:00
5:15 AM,35.6,17.6,48,30.31,10.0,SW,6.9,-,N/A,,Partly Cloudy,220,2013-11-26 10:15:00
5:35 AM,35.6,19.4,52,30.32,10.0,SSW,6.9,-,N/A,,Partly Cloudy,210,2013-11-26 10:35:00
5:55 AM,35.6,19.4,52,30.31,10.0,SSW,5.8,-,N/A,,Clear,200,2013-11-26 10:55:00
6:15 AM,35.6,19.4,52,30.33,10.0,SW,4.6,-,N/A,,Clear,230,2013-11-26 11:15:00
6:35 AM,35.6,19.4,52,30.32,10.0,Calm,Calm,-,N/A,,Clear,0,2013-11-26 11:35:00
6:55 AM,35.6,19.4,52,30.32,9.0,SSW,4.6,-,N/A,,Clear,200,2013-11-26 11:55:00
7:15 AM,35.6,19.4,52,30.32,9.0,SSW,4.6,-,N/A,,Partly Cloudy,210,2013-11-26 12:15:00
7:35 AM,35.6,21.2,56,30.34,10.0,Calm,Calm,-,N/A,,Partly Cloudy,0,2013-11-26 12:35:00
7:55 AM,35.6,21.2,56,30.34,10.0,SSW,5.8,-,N/A,,Clear,210,2013-11-26 12:55:00
8:15 AM,37.4,23.0,56,30.34,7.0,SSW,3.5,-,N/A,,Clear,210,2013-11-26 13:15:00
8:35 AM,37.4,23.0,56,30.34,10.0,SW,6.9,-,N/A,,Clear,230,2013-11-26 13:35:00
8:55 AM,37.4,23.0,56,30.33,10.0,Calm,Calm,-,N/A,,Clear,0,2013-11-26 13:55:00
9:15 AM,39.2,24.8,56,30.34,10.0,SW,4.6,-,N/A,,Partly Cloudy,230,2013-11-26 14:15:00
9:35 AM,39.2,24.8,56,30.34,9.0,SW,3.5,-,N/A,,Clear,220,2013-11-26 14:35:00
9:55 AM,39.2,24.8,56,30.34,10.0,SSW,4.6,-,N/A,,Clear,210,2013-11-26 14:55:00
10:15 AM,39.2,23.0,52,30.35,10.0,SSW,4.6,-,N/A,,Partly Cloudy,210,2013-11-26 15:15:00
10:35 AM,41.0,23.0,49,30.33,10.0,WSW,4.6,-,N/A,,Partly Cloudy,250,2013-11-26 15:35:00
10:55 AM,41.0,23.0,49,30.32,10.0,WSW,3.5,-,N/A,,Partly Cloudy,250,2013-11-26 15:55:00
11:15 AM,42.8,23.0,46,30.31,10.0,SW,4.6,-,N/A,,Scattered Clouds,230,2013-11-26 16:15:00
11:35 AM,42.8,23.0,46,30.31,10.0,SW,4.6,-,N/A,,Mostly Cloudy,230,2013-11-26 16:35:00
11:55 AM,42.8,23.0,46,30.31,10.0,WSW,3.5,-,N/A,,Overcast,240,2013-11-26 16:55:00
12:15 PM,42.8,23.0,46,30.30,10.0,WSW,5.8,-,N/A,,Overcast,250,2013-11-26 17:15:00
12:35 PM,42.8,23.0,46,30.30,10.0,WSW,5.8,-,N/A,,Mostly Cloudy,240,2013-11-26 17:35:00
12:55 PM,44.6,23.0,43,30.29,10.0,West,3.5,-,N/A,,Mostly Cloudy,260,2013-11-26 17:55:00
1:15 PM,44.6,23.0,43,30.29,10.0,WSW,3.5,-,N/A,,Mostly Cloudy,240,2013-11-26 18:15:00
1:35 PM,44.6,23.0,43,30.29,10.0,Calm,Calm,-,N/A,,Scattered Clouds,0,2013-11-26 18:35:00
1:55 PM,44.6,24.8,46,30.29,10.0,SSW,3.5,-,N/A,,Clear,210,2013-11-26 18:55:00
2:15 PM,44.6,24.8,46,30.29,10.0,Calm,Calm,-,N/A,,Partly Cloudy,0,2013-11-26 19:15:00
2:35 PM,44.6,24.8,46,30.29,6.0,Calm,Calm,-,N/A,,Haze,0,2013-11-26 19:35:00
2:55 PM,44.6,26.6,49,30.29,8.0,South,4.6,-,N/A,,Clear,190,2013-11-26 19:55:00
3:15 PM,44.6,26.6,49,30.30,10.0,Calm,Calm,-,N/A,,Clear,0,2013-11-26 20:15:00
3:35 PM,42.8,28.4,57,30.29,10.0,Calm,Calm,-,N/A,,Clear,0,2013-11-26 20:35:00
3:55 PM,42.8,28.4,57,30.29,10.0,SSE,3.5,-,N/A,,Clear,160,2013-11-26 20:55:00
4:15 PM,42.8,28.4,57,30.29,10.0,SSE,3.5,-,N/A,,Clear,160,2013-11-26 21:15:00
4:35 PM,42.8,28.4,57,30.30,10.0,SSE,3.5,-,N/A,,Mostly Cloudy,160,2013-11-26 21:35:00
4:55 PM,41.0,32.0,70,30.30,10.0,Calm,Calm,-,N/A,,Drizzle,0,2013-11-26 21:55:00
5:15 PM,39.2,33.8,81,30.29,10.0,Calm,Calm,-,N/A,,Light Drizzle,0,2013-11-26 22:15:00
5:35 PM,37.4,33.8,87,30.29,10.0,Calm,Calm,-,N/A,,Light Drizzle,0,2013-11-26 22:35:00
5:55 PM,39.2,35.6,87,30.28,10.0,SSE,3.5,-,N/A,,Light Drizzle,150,2013-11-26 22:55:00
6:15 PM,39.2,35.6,87,30.28,10.0,SE,3.5,-,N/A,,Light Drizzle,130,2013-11-26 23:15:00
6:35 PM,39.2,37.4,93,30.27,10.0,Calm,Calm,-,N/A,,Light Drizzle,0,2013-11-26 23:35:00
6:55 PM,39.2,37.4,93,30.27,10.0,Calm,Calm,-,0.01,,Light Drizzle,0,2013-11-26 23:55:00
7:15 PM,39.2,37.4,93,30.26,10.0,Calm,Calm,-,N/A,,Light Drizzle,0,2013-11-27 00:15:00
7:35 PM,39.2,37.4,93,30.26,3.0,Calm,Calm,-,N/A,Rain,Light Rain,0,2013-11-27 00:35:00
7:55 PM,37.4,37.4,100,30.26,4.0,Calm,Calm,-,0.01,,Drizzle,0,2013-11-27 00:55:00
8:15 PM,39.2,39.2,100,30.24,9.0,ESE,5.8,-,N/A,Rain,Light Rain,110,2013-11-27 01:15:00
8:35 PM,42.8,41.0,93,30.23,5.0,ESE,9.2,-,0.01,Rain,Light Rain,110,2013-11-27 01:35:00
8:55 PM,42.8,41.0,93,30.22,7.0,ESE,6.9,-,0.02,,Light Drizzle,110,2013-11-27 01:55:00
9:15 PM,42.8,41.0,93,30.21,9.0,East,6.9,-,0.01,,Light Drizzle,100,2013-11-27 02:15:00
9:35 PM,44.6,42.8,93,30.19,5.0,ESE,9.2,-,0.01,,Light Drizzle,110,2013-11-27 02:35:00
9:55 PM,44.6,42.8,93,30.18,8.0,ESE,8.1,-,0.02,,Light Drizzle,110,2013-11-27 02:55:00
10:15 PM,44.6,44.6,100,30.16,8.0,ESE,9.2,-,N/A,,Light Drizzle,110,2013-11-27 03:15:00
10:35 PM,46.4,44.6,93,30.15,5.0,ESE,10.4,-,0.01,Rain,Light Rain,110,2013-11-27 03:35:00
10:55 PM,46.4,44.6,93,30.13,3.0,ESE,10.4,-,0.02,Rain,Light Rain,120,2013-11-27 03:55:00
11:15 PM,46.4,44.6,93,30.11,3.0,ESE,8.1,-,0.02,Rain,Light Rain,120,2013-11-27 04:15:00
11:35 PM,46.4,46.4,100,30.09,4.0,ESE,9.2,-,0.04,Rain,Light Rain,120,2013-11-27 04:35:00
11:55 PM,46.4,46.4,100,30.07,4.0,ESE,12.7,-,0.04,,Light Drizzle,120,2013-11-27 04:55:00